createdAt,value
2023-05-24T00:01:09.732Z,97108.75
2023-05-24T00:03:39.552Z,97113.59
2023-05-24T00:06:07.337Z,97113.53
2023-05-24T00:08:34.875Z,97109.97
2023-05-24T00:11:02.216Z,97121.09
2023-05-24T00:13:29.674Z,97110.44
2023-05-24T00:15:57.514Z,97111.88
2023-05-24T00:18:26.268Z,97108.13
2023-05-24T00:20:57.176Z,97106.88
2023-05-24T00:23:27.634Z,97109.06
2023-05-24T00:25:54.865Z,97113.94
2023-05-24T00:28:22.268Z,97113.63
2023-05-24T00:30:51.257Z,97115.66
2023-05-24T00:33:18.596Z,97110.97
2023-05-24T00:35:46.542Z,97118.03
2023-05-24T00:38:14.617Z,97109.09
2023-05-24T00:40:42.057Z,97121.19
2023-05-24T00:43:09.445Z,97124.78
2023-05-24T00:45:36.730Z,97127.13
2023-05-24T00:48:05.385Z,97116.94
2023-05-24T00:50:32.773Z,97123.34
2023-05-24T00:53:03.259Z,97114.28
2023-05-24T00:55:30.714Z,97126.50
2023-05-24T00:57:58.270Z,97119.44
2023-05-24T01:00:27.619Z,97124.31
2023-05-24T01:02:55.304Z,97132.31
2023-05-24T01:05:23.789Z,97127.47
2023-05-24T01:08:23.886Z,97126.66
2023-05-24T01:11:10.360Z,97130.28
2023-05-24T01:13:52.461Z,97135.63
2023-05-24T01:16:46.716Z,97133.41
2023-05-24T01:19:49.128Z,97137.78
2023-05-24T01:22:43.481Z,97134.81
2023-05-24T01:25:42.739Z,97129.63
2023-05-24T01:28:12.460Z,97132.47
2023-05-24T01:30:43.956Z,97134.19
2023-05-24T01:33:11.898Z,97137.78
2023-05-24T01:35:42.332Z,97128.53
2023-05-24T01:38:13.303Z,97137.31
2023-05-24T01:40:42.574Z,97135.59
2023-05-24T01:43:24.022Z,97134.19
2023-05-24T01:46:12.061Z,97137.50
2023-05-24T01:49:07.552Z,97131.81
2023-05-24T01:52:06.475Z,97129.94
2023-05-24T01:54:42.723Z,97129.31
2023-05-24T01:57:11.377Z,97135.38
2023-05-24T01:59:43.404Z,97137.75
2023-05-24T02:02:14.260Z,97138.09
2023-05-24T02:04:42.050Z,97140.63
2023-05-24T02:07:09.382Z,97140.63
2023-05-24T02:09:38.291Z,97138.75
2023-05-24T02:12:08.036Z,97138.09
2023-05-24T02:14:38.067Z,97140.38
2023-05-24T02:17:06.200Z,97147.59
2023-05-24T02:19:34.808Z,97141.69
2023-05-24T02:22:02.207Z,97142.19
2023-05-24T02:24:30.799Z,97144.38
2023-05-24T02:26:58.091Z,97147.50
2023-05-24T02:29:25.664Z,97145.50
2023-05-24T02:31:56.462Z,97140.47
2023-05-24T02:34:24.734Z,97142.16
2023-05-24T02:36:54.386Z,97140.28
2023-05-24T02:39:21.730Z,97138.88
2023-05-24T02:41:49.151Z,97139.97
2023-05-24T02:44:16.709Z,97144.69
2023-05-24T02:46:44.003Z,97145.31
2023-05-24T02:49:11.355Z,97142.03
2023-05-24T02:51:38.743Z,97150.63
2023-05-24T02:54:06.242Z,97146.75
2023-05-24T02:56:34.777Z,97148.91
2023-05-24T02:59:03.052Z,97144.03
2023-05-24T03:01:31.331Z,97145.63
2023-05-24T03:04:00.014Z,97149.38
2023-05-24T03:06:27.419Z,97153.00
2023-05-24T03:08:54.892Z,97146.91
2023-05-24T03:11:24.991Z,97162.41
2023-05-24T03:13:52.398Z,97169.31
2023-05-24T03:16:21.218Z,97167.75
2023-05-24T03:18:51.107Z,97171.22
2023-05-24T03:21:20.974Z,97172.75
2023-05-24T03:23:48.767Z,97174.63
2023-05-24T03:26:16.386Z,97174.59
2023-05-24T03:28:44.483Z,97169.88
2023-05-24T03:31:12.557Z,97176.75
2023-05-24T03:33:40.063Z,97173.22
2023-05-24T03:36:07.705Z,97172.53
2023-05-24T03:38:34.959Z,97178.16
2023-05-24T03:41:02.294Z,97172.47
2023-05-24T03:43:29.819Z,97173.09
2023-05-24T03:46:00.978Z,97182.81
2023-05-24T03:48:28.425Z,97180.63
2023-05-24T03:50:55.979Z,97180.97
2023-05-24T03:53:23.533Z,97181.22
2023-05-24T03:55:51.754Z,97177.34
2023-05-24T03:58:19.380Z,97181.84
2023-05-24T04:00:47.268Z,97193.16
2023-05-24T04:03:15.015Z,97191.25
2023-05-24T04:05:42.575Z,97191.69
2023-05-24T04:08:10.776Z,97202.03
2023-05-24T04:10:39.307Z,97200.94
2023-05-24T04:13:06.811Z,97208.66
2023-05-24T04:15:38.107Z,97220.41
2023-05-24T04:18:06.956Z,97227.47
2023-05-24T04:20:36.019Z,97230.63
2023-05-24T04:23:03.667Z,97235.00
2023-05-24T04:25:33.535Z,97237.59
2023-05-24T04:28:02.477Z,97238.72
2023-05-24T04:30:31.647Z,97246.28
2023-05-24T04:32:59.707Z,97251.28
2023-05-24T04:35:30.209Z,97245.38
2023-05-24T04:37:57.740Z,97252.13
2023-05-24T04:40:25.078Z,97255.19
2023-05-24T04:42:52.636Z,97256.63
2023-05-24T04:45:19.934Z,97257.16
2023-05-24T04:47:47.376Z,97259.47
2023-05-24T04:50:14.942Z,97260.53
2023-05-24T04:52:42.341Z,97263.59
2023-05-24T04:55:10.457Z,97269.28
2023-05-24T04:57:37.836Z,97270.13
2023-05-24T05:00:07.589Z,97266.19
2023-05-24T05:02:35.392Z,97278.69
2023-05-24T05:05:02.796Z,97280.38
2023-05-24T05:07:30.145Z,97282.47
2023-05-24T05:09:57.496Z,97291.94
2023-05-24T05:12:24.746Z,97296.13
2023-05-24T05:14:52.232Z,97293.19
2023-05-24T05:17:20.033Z,97292.66
2023-05-24T05:19:47.431Z,97300.06
2023-05-24T05:22:14.919Z,97304.53
2023-05-24T05:24:42.462Z,97313.25
2023-05-24T05:27:09.945Z,97317.41
2023-05-24T05:29:37.287Z,97321.84
2023-05-24T05:32:04.774Z,97323.41
2023-05-24T05:34:31.999Z,97325.19
2023-05-24T05:36:59.318Z,97329.03
2023-05-24T05:39:26.959Z,97327.50
2023-05-24T05:41:54.192Z,97329.22
2023-05-24T05:44:21.442Z,97344.22
2023-05-24T05:46:49.010Z,97350.00
2023-05-24T05:49:18.610Z,97356.50
2023-05-24T05:51:47.146Z,97355.84
2023-05-24T05:54:15.695Z,97368.13
2023-05-24T05:56:48.375Z,97362.13
2023-05-24T05:59:16.120Z,97368.34
2023-05-24T06:01:47.250Z,97372.19
2023-05-24T06:04:18.175Z,97373.38
2023-05-24T06:06:49.638Z,97375.88
2023-05-24T06:09:17.787Z,97375.78
2023-05-24T06:11:45.199Z,97374.78
2023-05-24T06:14:18.561Z,97377.91
2023-05-24T06:16:46.284Z,97390.41
2023-05-24T06:19:13.969Z,97393.19
2023-05-24T06:21:47.230Z,97388.63
2023-05-24T06:24:20.429Z,97398.84
2023-05-24T06:26:49.316Z,97394.84
2023-05-24T06:29:16.914Z,97406.84
2023-05-24T06:31:44.334Z,97406.56
2023-05-24T06:34:11.611Z,97413.31
2023-05-24T06:36:43.126Z,97414.75
2023-05-24T06:39:13.331Z,97418.06
2023-05-24T06:41:42.328Z,97427.47
2023-05-24T06:44:09.852Z,97416.91
2023-05-24T06:46:37.709Z,97431.09
2023-05-24T06:49:05.239Z,97431.13
2023-05-24T06:51:33.932Z,97434.75
2023-05-24T06:54:01.868Z,97439.63
2023-05-24T06:56:29.294Z,97440.84
2023-05-24T06:59:00.203Z,97441.66
2023-05-24T07:01:27.775Z,97448.22
2023-05-24T07:03:55.519Z,97452.72
2023-05-24T07:06:22.925Z,97458.38
2023-05-24T07:08:50.325Z,97452.59
2023-05-24T07:11:17.892Z,97457.75
2023-05-24T07:13:45.440Z,97463.13
2023-05-24T07:16:12.877Z,97470.28
2023-05-24T07:18:41.984Z,97473.59
2023-05-24T07:21:09.579Z,97477.63
2023-05-24T07:23:38.269Z,97478.41
2023-05-24T07:26:06.541Z,97488.00
2023-05-24T07:28:34.557Z,97486.97
2023-05-24T07:31:01.870Z,97484.66
2023-05-24T07:33:29.300Z,97484.13
2023-05-24T07:35:56.563Z,97487.94
2023-05-24T07:38:23.786Z,97487.31
2023-05-24T07:40:51.188Z,97488.59
2023-05-24T07:43:18.487Z,97488.00
2023-05-24T07:45:45.987Z,97491.34
2023-05-24T07:48:13.315Z,97493.56
2023-05-24T07:50:40.780Z,97499.25
2023-05-24T07:53:08.229Z,97497.88
2023-05-24T07:55:35.914Z,97496.63
2023-05-24T07:58:03.115Z,97503.75
2023-05-24T08:00:30.503Z,97501.38
2023-05-24T08:02:57.794Z,97512.16
2023-05-24T08:05:25.842Z,97507.78
2023-05-24T08:07:53.798Z,97514.47
2023-05-24T08:10:21.975Z,97520.78
2023-05-24T08:12:51.660Z,97526.81
2023-05-24T08:15:19.122Z,97526.38
2023-05-24T08:17:46.517Z,97532.00
2023-05-24T08:20:15.454Z,97527.97
2023-05-24T08:22:43.678Z,97536.00
2023-05-24T08:25:11.824Z,97535.81
2023-05-24T08:27:39.187Z,97536.81
2023-05-24T08:30:08.589Z,97539.34
2023-05-24T08:32:36.547Z,97544.84
2023-05-24T08:35:18.546Z,97549.72
2023-05-24T08:37:47.433Z,97554.53
2023-05-24T08:40:14.841Z,97549.22
2023-05-24T08:42:42.751Z,97547.34
2023-05-24T08:45:13.617Z,97552.09
2023-05-24T08:47:42.443Z,97552.75
2023-05-24T08:50:10.735Z,97563.22
2023-05-24T08:52:39.851Z,97557.63
2023-05-24T08:55:08.733Z,97560.41
2023-05-24T08:57:40.111Z,97562.53
2023-05-24T09:00:13.035Z,97566.22
2023-05-24T09:02:43.875Z,97573.50
2023-05-24T09:05:21.685Z,97573.88
2023-05-24T09:07:52.683Z,97572.81
2023-05-24T09:10:23.510Z,97576.84
2023-05-24T09:12:57.739Z,97574.28
2023-05-24T09:15:25.322Z,97580.78
2023-05-24T09:17:52.654Z,97586.22
2023-05-24T09:20:21.855Z,97580.22
2023-05-24T09:22:53.602Z,97592.09
2023-05-24T09:25:21.714Z,97591.19
2023-05-24T09:27:53.773Z,97590.13
2023-05-24T09:30:21.795Z,97595.66
2023-05-24T09:33:00.834Z,97590.59
2023-05-24T09:35:28.858Z,97598.69
2023-05-24T09:38:00.387Z,97595.16
2023-05-24T09:40:29.665Z,97600.38
2023-05-24T09:43:09.716Z,97602.41
2023-05-24T09:45:47.719Z,97596.66
2023-05-24T09:48:20.595Z,97600.47
2023-05-24T09:51:10.042Z,97600.56
2023-05-24T09:53:38.725Z,97599.97
2023-05-24T09:56:09.882Z,97604.00
2023-05-24T09:58:37.223Z,97608.47
2023-05-24T10:01:18.838Z,97606.66
2023-05-24T10:03:58.460Z,97603.41
2023-05-24T10:06:26.309Z,97610.81
2023-05-24T10:08:55.918Z,97604.50
2023-05-24T10:11:23.352Z,97607.50
2023-05-24T10:13:51.195Z,97607.59
2023-05-24T10:16:18.652Z,97606.22
2023-05-24T10:18:45.956Z,97613.25
2023-05-24T10:21:13.858Z,97610.94
2023-05-24T10:23:45.236Z,97616.03
2023-05-24T10:26:14.556Z,97610.78
2023-05-24T10:28:55.080Z,97609.13
2023-05-24T10:31:40.605Z,97612.34
2023-05-24T10:34:09.372Z,97628.19
2023-05-24T10:36:40.555Z,97624.63
2023-05-24T10:39:12.451Z,97631.72
2023-05-24T10:41:43.282Z,97632.88
2023-05-24T10:44:18.543Z,97631.88
2023-05-24T10:47:15.801Z,97632.09
2023-05-24T10:50:05.219Z,97633.16
2023-05-24T10:52:37.137Z,97634.72
2023-05-24T10:55:10.761Z,97637.00
2023-05-24T10:57:40.123Z,97635.09
2023-05-24T11:00:34.518Z,97631.84
2023-05-24T11:03:08.939Z,97628.13
2023-05-24T11:05:46.850Z,97629.94
2023-05-24T11:08:14.639Z,97622.75
2023-05-24T11:10:45.145Z,97623.06
2023-05-24T11:13:12.698Z,97628.28
2023-05-24T11:15:40.082Z,97623.75
2023-05-24T11:18:10.076Z,97627.78
2023-05-24T11:20:37.525Z,97624.34
2023-05-24T11:23:06.614Z,97632.34
2023-05-24T11:25:37.025Z,97627.13
2023-05-24T11:28:07.614Z,97634.38
2023-05-24T11:30:41.839Z,97630.78
2023-05-24T11:33:20.143Z,97629.78
2023-05-24T11:35:49.152Z,97629.56
2023-05-24T11:38:18.671Z,97638.56
2023-05-24T11:40:48.231Z,97630.78
2023-05-24T11:43:18.895Z,97634.50
2023-05-24T11:45:51.324Z,97634.91
2023-05-24T11:48:20.538Z,97638.75
2023-05-24T11:50:52.432Z,97634.03
2023-05-24T11:53:23.422Z,97636.25
2023-05-24T11:55:51.544Z,97636.25
2023-05-24T11:58:32.866Z,97632.72
2023-05-24T12:01:00.886Z,97643.38
2023-05-24T12:03:28.455Z,97636.59
2023-05-24T12:05:57.952Z,97633.81
2023-05-24T12:08:25.277Z,97641.63
2023-05-24T12:10:52.849Z,97642.41
2023-05-24T12:13:26.955Z,97641.91
2023-05-24T12:15:56.840Z,97640.03
2023-05-24T12:18:26.546Z,97637.47
2023-05-24T12:20:54.643Z,97643.19
2023-05-24T12:23:27.951Z,97643.97
2023-05-24T12:26:02.458Z,97640.13
2023-05-24T12:28:36.841Z,97642.31
2023-05-24T12:31:05.956Z,97638.84
2023-05-24T12:33:34.331Z,97644.94
2023-05-24T12:36:01.894Z,97638.50
2023-05-24T12:38:31.708Z,97637.16
2023-05-24T12:41:12.121Z,97642.72
2023-05-24T12:43:40.968Z,97634.19
2023-05-24T12:46:08.193Z,97635.75
2023-05-24T12:48:35.710Z,97631.53
2023-05-24T12:51:04.091Z,97636.47
2023-05-24T12:53:31.508Z,97632.06
2023-05-24T12:56:00.598Z,97630.47
2023-05-24T12:58:28.208Z,97640.44
2023-05-24T13:00:55.454Z,97634.81
2023-05-24T13:03:22.924Z,97621.88
2023-05-24T13:05:51.059Z,97626.28
2023-05-24T13:08:18.480Z,97633.22
2023-05-24T13:10:45.844Z,97629.47
2023-05-24T13:13:13.222Z,97624.97
2023-05-24T13:15:41.941Z,97634.22
2023-05-24T13:18:09.388Z,97635.59
2023-05-24T13:20:36.859Z,97630.19
2023-05-24T13:23:04.311Z,97630.47
2023-05-24T13:25:32.693Z,97628.00
2023-05-24T13:28:00.122Z,97620.81
2023-05-24T13:30:28.375Z,97628.59
2023-05-24T13:32:56.778Z,97636.78
2023-05-24T13:35:24.444Z,97631.34
2023-05-24T13:37:54.854Z,97625.50
2023-05-24T13:40:25.149Z,97621.34
2023-05-24T13:42:55.736Z,97624.47
2023-05-24T13:45:23.520Z,97631.88
2023-05-24T13:47:52.084Z,97627.03
2023-05-24T13:50:20.642Z,97623.06
2023-05-24T13:52:47.893Z,97627.41
2023-05-24T13:55:15.125Z,97620.59
2023-05-24T13:57:50.564Z,97619.88
2023-05-24T14:00:19.943Z,97622.19
2023-05-24T14:02:47.679Z,97623.56
2023-05-24T14:05:26.946Z,97616.22
2023-05-24T14:07:57.673Z,97613.22
2023-05-24T14:10:25.018Z,97612.75
2023-05-24T14:13:07.967Z,97618.91
2023-05-24T14:15:40.138Z,97616.63
2023-05-24T14:18:08.659Z,97612.81
2023-05-24T14:20:38.138Z,97617.25
2023-05-24T14:23:07.428Z,97609.63
2023-05-24T14:25:34.742Z,97609.00
2023-05-24T14:28:03.756Z,97602.28
2023-05-24T14:30:34.325Z,97609.16
2023-05-24T14:33:02.517Z,97608.69
2023-05-24T14:35:29.946Z,97610.84
2023-05-24T14:37:57.509Z,97609.84
2023-05-24T14:40:25.025Z,97610.91
2023-05-24T14:42:52.395Z,97614.31
2023-05-24T14:45:19.749Z,97613.63
2023-05-24T14:47:47.199Z,97614.31
2023-05-24T14:50:14.632Z,97613.66
2023-05-24T14:52:41.902Z,97611.00
2023-05-24T14:55:09.909Z,97615.53
2023-05-24T14:57:37.415Z,97625.16
2023-05-24T15:00:05.244Z,97622.66
2023-05-24T15:02:34.264Z,97622.16
2023-05-24T15:05:04.368Z,97628.69
2023-05-24T15:07:32.189Z,97628.28
2023-05-24T15:09:59.489Z,97625.63
2023-05-24T15:12:26.869Z,97630.25
2023-05-24T15:14:54.457Z,97634.03
2023-05-24T15:17:22.088Z,97631.53
2023-05-24T15:19:49.504Z,97629.47
2023-05-24T15:22:16.768Z,97629.38
2023-05-24T15:24:44.018Z,97633.03
2023-05-24T15:27:11.365Z,97637.38
2023-05-24T15:29:38.842Z,97639.53
2023-05-24T15:32:06.673Z,97631.16
2023-05-24T15:34:34.028Z,97632.53
2023-05-24T15:37:01.439Z,97635.31
2023-05-24T15:39:28.736Z,97631.25
2023-05-24T15:41:57.020Z,97641.22
2023-05-24T15:44:24.323Z,97643.22
2023-05-24T15:46:52.159Z,97638.56
2023-05-24T15:49:19.782Z,97646.44
2023-05-24T15:52:03.801Z,97645.16
2023-05-24T15:54:32.488Z,97649.13
2023-05-24T15:57:02.110Z,97653.16
2023-05-24T15:59:29.624Z,97654.72
2023-05-24T16:01:57.094Z,97655.13
2023-05-24T16:04:24.505Z,97648.44
2023-05-24T16:06:51.844Z,97656.34
2023-05-24T16:09:19.314Z,97664.63
2023-05-24T16:11:47.647Z,97660.78
2023-05-24T16:14:16.601Z,97664.72
2023-05-24T16:16:48.430Z,97661.66
2023-05-24T16:19:15.860Z,97664.53
2023-05-24T16:21:43.201Z,97669.16
2023-05-24T16:24:10.605Z,97663.25
2023-05-24T16:26:38.073Z,97658.72
2023-05-24T16:29:07.163Z,97670.72
2023-05-24T16:31:34.553Z,97670.81
2023-05-24T16:34:02.032Z,97672.84
2023-05-24T16:36:29.301Z,97672.16
2023-05-24T16:38:56.677Z,97671.69
2023-05-24T16:41:24.041Z,97669.38
2023-05-24T16:43:51.628Z,97661.25
2023-05-24T16:46:19.189Z,97672.91
2023-05-24T16:48:46.619Z,97675.56
2023-05-24T16:51:13.870Z,97675.75
2023-05-24T16:53:41.240Z,97672.28
2023-05-24T16:56:08.692Z,97681.09
2023-05-24T16:58:37.375Z,97679.50
2023-05-24T17:01:04.996Z,97681.28
2023-05-24T17:03:34.110Z,97680.75
2023-05-24T17:06:04.029Z,97679.00
2023-05-24T17:08:36.548Z,97685.41
2023-05-24T17:11:05.876Z,97692.41
2023-05-24T17:13:34.528Z,97691.84
2023-05-24T17:16:04.430Z,97692.09
2023-05-24T17:18:31.957Z,97690.75
2023-05-24T17:21:02.342Z,97700.38
2023-05-24T17:23:39.768Z,97695.63
2023-05-24T17:26:08.273Z,97698.28
2023-05-24T17:28:36.457Z,97696.97
2023-05-24T17:31:04.250Z,97704.09
2023-05-24T17:33:32.453Z,97713.81
2023-05-24T17:36:04.278Z,97712.88
2023-05-24T17:38:37.575Z,97712.63
2023-05-24T17:41:07.933Z,97712.81
2023-05-24T17:43:36.932Z,97719.06
2023-05-24T17:46:07.068Z,97720.13
2023-05-24T17:48:38.877Z,97719.91
2023-05-24T17:51:09.220Z,97724.16
2023-05-24T17:53:38.535Z,97720.28
2023-05-24T17:56:08.469Z,97724.00
2023-05-24T17:58:37.205Z,97729.75
2023-05-24T18:01:06.966Z,97727.53
2023-05-24T18:03:39.321Z,97723.97
2023-05-24T18:06:07.991Z,97727.88
2023-05-24T18:08:38.301Z,97732.56
2023-05-24T18:11:09.723Z,97731.75
2023-05-24T18:13:43.089Z,97734.13
2023-05-24T18:16:12.070Z,97732.22
2023-05-24T18:18:39.773Z,97736.34
2023-05-24T18:21:09.657Z,97738.59
2023-05-24T18:23:38.339Z,97742.09
2023-05-24T18:26:11.863Z,97749.72
2023-05-24T18:28:41.899Z,97744.28
2023-05-24T18:31:14.716Z,97745.47
2023-05-24T18:33:42.376Z,97747.50
2023-05-24T18:36:09.990Z,97757.34
2023-05-24T18:38:40.005Z,97756.28
2023-05-24T18:41:12.159Z,97761.91
2023-05-24T18:43:40.207Z,97760.06
2023-05-24T18:46:07.797Z,97762.53
2023-05-24T18:48:35.254Z,97767.91
2023-05-24T18:51:02.880Z,97762.47
2023-05-24T18:53:30.229Z,97773.56
2023-05-24T18:55:57.540Z,97779.16
2023-05-24T18:58:24.974Z,97782.56
2023-05-24T19:00:52.230Z,97789.69
2023-05-24T19:03:20.177Z,97797.44
2023-05-24T19:05:48.905Z,97793.59
2023-05-24T19:08:16.806Z,97793.31
2023-05-24T19:10:45.023Z,97796.38
2023-05-24T19:13:12.355Z,97802.19
2023-05-24T19:15:39.753Z,97804.84
2023-05-24T19:18:07.245Z,97802.59
2023-05-24T19:20:34.883Z,97808.63
2023-05-24T19:23:02.348Z,97805.06
2023-05-24T19:25:31.476Z,97799.81
2023-05-24T19:28:00.720Z,97801.06
2023-05-24T19:30:28.516Z,97804.09
2023-05-24T19:32:56.123Z,97803.28
2023-05-24T19:35:23.668Z,97807.44
2023-05-24T19:37:52.259Z,97803.59
2023-05-24T19:40:20.658Z,97814.06
2023-05-24T19:42:48.093Z,97812.50
2023-05-24T19:45:15.649Z,97818.09
2023-05-24T19:47:43.734Z,97817.59
2023-05-24T19:50:11.787Z,97818.53
2023-05-24T19:52:39.515Z,97822.97
2023-05-24T19:55:08.395Z,97819.06
2023-05-24T19:57:36.113Z,97811.34
2023-05-24T20:00:05.401Z,97815.88
2023-05-24T20:02:38.751Z,97812.94
2023-05-24T20:05:07.626Z,97809.47
2023-05-24T20:07:35.238Z,97806.81
2023-05-24T20:10:05.111Z,97807.34
2023-05-24T20:12:34.636Z,97805.19
2023-05-24T20:15:02.264Z,97809.13
2023-05-24T20:17:29.642Z,97802.69
2023-05-24T20:19:57.168Z,97795.78
2023-05-24T20:22:24.723Z,97796.97
2023-05-24T20:24:52.063Z,97790.91
2023-05-24T20:27:19.537Z,97795.41
2023-05-24T20:29:47.925Z,97795.09
2023-05-24T20:32:16.415Z,97790.47
2023-05-24T20:34:43.927Z,97784.13
2023-05-24T20:37:11.459Z,97790.91
2023-05-24T20:39:39.010Z,97795.91
2023-05-24T20:42:07.818Z,97791.66
2023-05-24T20:44:35.115Z,97789.09
2023-05-24T20:47:02.495Z,97800.66
2023-05-24T20:49:29.889Z,97791.34
2023-05-24T20:51:57.150Z,97797.34
2023-05-24T20:54:24.481Z,97794.69
2023-05-24T20:56:51.914Z,97795.00
2023-05-24T20:59:19.162Z,97800.66
2023-05-24T21:01:46.584Z,97793.66
2023-05-24T21:04:14.374Z,97802.53
2023-05-24T21:06:41.685Z,97803.72
2023-05-24T21:09:08.980Z,97800.03
2023-05-24T21:11:36.374Z,97797.72
2023-05-24T21:14:03.788Z,97794.53
2023-05-24T21:16:31.360Z,97794.69
2023-05-24T21:19:01.135Z,97803.06
2023-05-24T21:21:28.867Z,97802.75
2023-05-24T21:23:56.776Z,97807.00
2023-05-24T21:26:24.254Z,97814.97
2023-05-24T21:28:52.138Z,97813.38
2023-05-24T21:31:20.936Z,97817.44
2023-05-24T21:33:48.392Z,97818.25
2023-05-24T21:36:15.710Z,97822.53
2023-05-24T21:38:42.867Z,97820.75
2023-05-24T21:41:10.528Z,97819.88
2023-05-24T21:43:43.913Z,97817.75
2023-05-24T21:46:11.348Z,97817.06
2023-05-24T21:48:38.737Z,97822.00
2023-05-24T21:51:06.207Z,97820.44
2023-05-24T21:53:35.036Z,97816.06
2023-05-24T21:56:02.997Z,97817.03
2023-05-24T21:58:30.551Z,97812.00
2023-05-24T22:00:57.787Z,97818.13
2023-05-24T22:03:25.165Z,97822.84
2023-05-24T22:05:52.644Z,97824.44
2023-05-24T22:08:19.859Z,97828.69
2023-05-24T22:10:47.283Z,97834.56
2023-05-24T22:13:14.760Z,97838.25
2023-05-24T22:15:42.286Z,97834.63
2023-05-24T22:18:09.792Z,97845.00
2023-05-24T22:20:37.259Z,97833.53
2023-05-24T22:23:04.640Z,97841.69
2023-05-24T22:25:32.019Z,97844.66
2023-05-24T22:27:59.445Z,97848.13
2023-05-24T22:30:27.106Z,97841.25
2023-05-24T22:32:55.803Z,97850.03
2023-05-24T22:35:23.167Z,97849.25
2023-05-24T22:37:50.645Z,97852.97
2023-05-24T22:40:18.208Z,97848.19
2023-05-24T22:42:45.637Z,97838.66
2023-05-24T22:45:13.963Z,97838.81
2023-05-24T22:47:41.303Z,97838.25
2023-05-24T22:50:09.606Z,97843.41
2023-05-24T22:52:42.380Z,97845.84
2023-05-24T22:55:13.279Z,97846.38
2023-05-24T22:57:40.657Z,97853.78
2023-05-24T23:00:08.969Z,97856.16
2023-05-24T23:02:36.822Z,97849.97
2023-05-24T23:05:04.751Z,97854.16
2023-05-24T23:07:32.106Z,97859.03
2023-05-24T23:09:59.978Z,97858.44
2023-05-24T23:12:27.335Z,97857.19
2023-05-24T23:14:58.300Z,97859.84
2023-05-24T23:17:26.443Z,97864.41
2023-05-24T23:19:53.994Z,97857.81
2023-05-24T23:24:51.008Z,97860.47
2023-05-24T23:27:18.721Z,97862.78
2023-05-24T23:29:46.078Z,97862.00
2023-05-24T23:32:13.385Z,97862.94
2023-05-24T23:34:41.811Z,97863.94
2023-05-24T23:37:09.155Z,97862.81
2023-05-24T23:39:36.573Z,97862.72
2023-05-24T23:42:04.150Z,97861.69
2023-05-24T23:44:31.326Z,97862.00
2023-05-24T23:46:59.089Z,97867.91
2023-05-24T23:49:26.516Z,97867.81
2023-05-24T23:51:53.904Z,97870.16
2023-05-24T23:54:21.266Z,97870.44
2023-05-24T23:56:48.719Z,97864.31
2023-05-24T23:59:17.429Z,97863.84
